Time;durP1;ratioP1;P1;durP2;ratioP2;P2;SDS_P1;SDS_P2;PMS_P1;PMS_P2;Temp;Humidity;BMP_temperature;BMP_pressure;BME280_temperature;BME280_humidity;BME280_pressure;Samples;Min_cycle;Max_cycle;Signal;HPM_P1;HPM_P2
2022/09/25 00:01:39;;;;;;;28.95;13.65;;;;;;;7.58;70.51;100871.92;124664;1098;102949;-75
2022/09/25 00:04:25;;;;;;;25.87;14.27;;;;;;;7.53;70.71;100867.33;124659;1099;104166;-76
2022/09/25 00:06:57;;;;;;;27.10;14.83;;;;;;;7.50;70.75;100864.56;124662;1099;104332;-76
2022/09/25 00:09:28;;;;;;;27.97;14.30;;;;;;;7.45;70.83;100865.11;124672;1099;104159;-76
2022/09/25 00:11:59;;;;;;;25.63;13.83;;;;;;;7.41;70.74;100866.67;124674;1099;104182;-76
2022/09/25 00:14:31;;;;;;;26.73;13.93;;;;;;;7.38;70.78;100869.11;124715;1098;104363;-76
2022/09/25 00:17:07;;;;;;;23.57;12.13;;;;;;;7.34;70.94;100869.78;124825;1099;104208;-76
2022/09/25 00:19:51;;;;;;;23.10;12.43;;;;;;;7.27;71.02;100868.53;124897;1099;104166;-76
2022/09/25 00:22:25;;;;;;;24.07;12.30;;;;;;;7.23;71.00;100868.27;124806;1099;104166;-76
2022/09/25 00:24:56;;;;;;;;;;;;;;;7.22;71.30;100870.00;124891;1098;104330;-77
2022/09/25 00:27:28;;;;;;;21.77;11.67;;;;;;;7.26;71.27;100874.58;124819;1099;104380;-76
2022/09/25 00:30:01;;;;;;;19.30;10.80;;;;;;;7.31;71.51;100872.23;124750;1099;104360;-76
2022/09/25 00:32:35;;;;;;;22.50;11.93;;;;;;;7.32;71.36;100869.70;124763;1099;104239;-76
2022/09/25 00:35:08;;;;;;;19.87;11.08;;;;;;;7.31;71.38;100867.89;124913;1099;102794;-76
2022/09/25 00:37:41;;;;;;;20.40;11.00;;;;;;;7.28;71.59;100862.50;124882;1099;104191;-76
2022/09/25 00:40:14;;;;;;;22.60;11.20;;;;;;;7.24;71.28;100863.14;124857;1099;104345;-76
2022/09/25 00:42:45;;;;;;;22.07;11.40;;;;;;;7.26;71.79;100860.61;124846;1099;103027;-76
2022/09/25 00:45:21;;;;;;;22.47;11.80;;;;;;;7.29;71.59;100863.39;124893;1099;104261;-76
2022/09/25 00:47:58;;;;;;;20.13;10.87;;;;;;;7.29;71.66;100864.31;124697;1099;104245;-75
2022/09/25 00:50:43;;;;;;;22.07;12.00;;;;;;;7.28;71.53;100859.00;124881;1099;104242;-76
2022/09/25 00:53:23;;;;;;;21.17;10.97;;;;;;;7.28;71.67;100857.28;124863;1099;104175;-76
2022/09/25 00:55:57;;;;;;;22.37;11.93;;;;;;;7.28;71.61;100856.39;124854;1099;104970;-75
2022/09/25 00:58:36;;;;;;;21.63;11.40;;;;;;;7.26;71.63;100856.31;124817;1099;104281;-75
2022/09/25 01:01:15;;;;;;;20.50;11.43;;;;;;;7.25;71.94;100862.33;124849;1099;102846;-75
2022/09/25 01:03:47;;;;;;;22.07;11.67;;;;;;;7.25;71.82;100862.33;124832;1099;104227;-75
2022/09/25 01:06:18;;;;;;;23.83;12.90;;;;;;;7.23;72.12;100861.36;124699;1099;104306;-75
2022/09/25 01:08:50;;;;;;;24.93;12.60;;;;;;;7.24;72.22;100859.64;124791;1098;104306;-75
2022/09/25 01:11:21;;;;;;;25.53;12.57;;;;;;;7.26;72.27;100858.92;124682;1099;104169;-75
2022/09/25 01:13:55;;;;;;;22.10;11.57;;;;;;;7.26;72.12;100858.00;124677;1099;104176;-75
2022/09/25 01:16:33;;;;;;;22.83;11.83;;;;;;;7.20;72.13;100859.47;124730;1098;101918;-75
2022/09/25 01:19:22;;;;;;;24.60;13.33;;;;;;;7.13;72.18;100848.61;124726;1099;104178;-76
2022/09/25 01:22:00;;;;;;;24.20;12.37;;;;;;;7.01;72.02;100851.42;124695;1099;104287;-76
2022/09/25 01:24:44;;;;;;;24.23;12.60;;;;;;;6.95;71.74;100848.47;124751;1099;104198;-75
2022/09/25 01:27:46;;;;;;;21.80;11.87;;;;;;;6.83;71.84;100854.80;124745;1099;104294;-76
2022/09/25 01:30:19;;;;;;;20.83;10.53;;;;;;;6.73;72.12;100842.08;124828;1099;102271;-76
2022/09/25 01:33:02;;;;;;;27.67;11.53;;;;;;;6.68;71.87;100840.02;124747;1099;104286;-76
2022/09/25 01:35:43;;;;;;;24.93;11.93;;;;;;;6.61;72.12;100838.77;124731;1099;104306;-75
2022/09/25 01:38:26;;;;;;;30.27;12.77;;;;;;;6.59;72.23;100838.69;124791;1099;102900;-76
2022/09/25 01:41:02;;;;;;;25.80;12.27;;;;;;;6.57;72.25;100829.86;124793;1099;102794;-76
2022/09/25 01:43:38;;;;;;;24.47;12.60;;;;;;;6.57;72.18;100831.58;124772;1099;104271;-76
2022/09/25 01:46:16;;;;;;;23.43;12.27;;;;;;;6.56;72.32;100829.77;124792;1099;104166;-76
2022/09/25 01:48:57;;;;;;;24.23;13.00;;;;;;;6.57;72.65;100832.46;124771;1099;104169;-75
2022/09/25 01:51:34;;;;;;;22.37;12.03;;;;;;;6.52;72.55;100833.92;124799;1098;104204;-76
2022/09/25 01:54:11;;;;;;;23.90;12.47;;;;;;;6.48;72.62;100832.86;124712;1098;104194;-76
2022/09/25 01:56:50;;;;;;;23.40;12.90;;;;;;;6.47;72.79;100835.38;124857;1099;104198;-76
2022/09/25 01:59:28;;;;;;;25.70;13.07;;;;;;;6.45;72.88;100842.19;124771;1099;104307;-75
2022/09/25 02:02:03;;;;;;;24.57;12.50;;;;;;;6.44;72.95;100830.88;124702;1099;104226;-76
2022/09/25 02:04:38;;;;;;;29.57;12.90;;;;;;;6.44;72.93;100828.27;124766;1098;104274;-75
2022/09/25 02:07:16;;;;;;;24.70;13.20;;;;;;;6.46;72.96;100838.78;124750;1099;104243;-75
2022/09/25 02:09:51;;;;;;;23.77;12.20;;;;;;;6.51;72.85;100841.66;124680;1099;102264;-75
2022/09/25 02:12:30;;;;;;;24.87;12.23;;;;;;;6.52;72.90;100839.13;124710;1099;104827;-75
2022/09/25 02:15:05;;;;;;;22.80;11.60;;;;;;;6.55;72.89;100838.42;124726;1099;104313;-75
2022/09/25 02:20:40;;;;;;;21.95;11.35;;;;;;;6.53;73.01;100846.16;124716;1099;104182;-75
2022/09/25 02:23:18;;;;;;;22.13;11.53;;;;;;;6.50;73.03;100847.66;124775;1098;104162;-75
2022/09/25 02:25:58;;;;;;;21.20;11.53;;;;;;;6.46;72.90;100843.99;124780;1099;103420;-75
2022/09/25 02:28:29;;;;;;;22.20;11.45;;;;;;;6.44;73.33;100846.51;124727;1099;104390;-76
2022/09/25 02:31:03;;;;;;;22.27;11.93;;;;;;;6.44;72.98;100845.62;124779;1099;104208;-75
2022/09/25 02:33:34;;;;;;;23.77;12.13;;;;;;;6.45;73.13;100845.71;124806;1099;104217;-75
2022/09/25 02:36:07;;;;;;;23.33;12.07;;;;;;;6.46;73.08;100844.88;124789;1099;101812;-75
2022/09/25 02:38:38;;;;;;;34.87;12.13;;;;;;;6.42;73.17;100848.14;124787;1099;104211;-75
2022/09/25 02:41:27;;;;;;;25.80;11.30;;;;;;;6.34;73.26;100849.38;124743;1099;102155;-75
2022/09/25 02:44:08;;;;;;;43.83;12.37;;;;;;;6.28;73.20;100838.63;124651;1099;104326;-75
2022/09/25 02:46:48;;;;;;;68.23;11.93;;;;;;;6.22;73.53;100838.27;124714;1099;101899;-75
2022/09/25 02:49:28;;;;;;;89.27;12.97;;;;;;;6.16;73.43;100849.22;124741;1099;104268;-74
2022/09/25 02:52:10;;;;;;;43.27;12.47;;;;;;;6.12;73.63;100847.23;124641;1098;104512;-75
2022/09/25 02:54:47;;;;;;;35.30;11.77;;;;;;;6.13;73.75;100848.16;124667;1099;104236;-75
2022/09/25 02:57:28;;;;;;;36.47;12.37;;;;;;;6.18;73.54;100849.31;124716;1099;102912;-75
2022/09/25 03:00:04;;;;;;;34.33;13.17;;;;;;;6.24;73.91;100849.67;124677;1099;104179;-75
2022/09/25 03:02:38;;;;;;;25.67;13.43;;;;;;;6.29;73.90;100836.11;124722;1099;102794;-75
2022/09/25 03:05:13;;;;;;;24.20;12.58;;;;;;;6.36;73.93;100841.66;124726;1099;103060;-75
2022/09/25 03:10:36;;;;;;;61.17;12.17;;;;;;;6.36;74.13;100833.83;124724;1099;104313;-75
2022/09/25 03:13:22;;;;;;;54.80;12.50;;;;;;;6.33;73.88;100831.97;124828;1099;104271;-75
2022/09/25 03:15:57;;;;;;;55.73;11.70;;;;;;;6.31;73.87;100817.95;124800;1099;104271;-75
2022/09/25 03:18:30;;;;;;;36.07;12.40;;;;;;;6.29;74.14;100820.48;124675;1099;102788;-75
2022/09/25 03:21:03;;;;;;;24.40;12.20;;;;;;;6.33;74.40;100829.36;124687;1099;104342;-75
2022/09/25 03:23:34;;;;;;;31.97;12.43;;;;;;;6.36;74.64;100829.54;124719;1099;104188;-75
2022/09/25 03:26:06;;;;;;;51.90;12.97;;;;;;;6.36;74.44;100833.83;124762;1099;104341;-75
2022/09/25 03:28:37;;;;;;;41.53;11.80;;;;;;;6.34;74.25;100825.03;124840;1099;102851;-75
2022/09/25 03:31:10;;;;;;;45.73;12.10;;;;;;;6.33;74.40;100821.55;124912;1099;102264;-76
2022/09/25 03:33:42;;;;;;;35.87;12.33;;;;;;;6.33;74.51;100824.15;124801;1099;104172;-75
2022/09/25 03:36:17;;;;;;;26.43;12.37;;;;;;;6.32;74.79;100819.73;124800;1099;104297;-76
2022/09/25 03:38:49;;;;;;;34.73;11.73;;;;;;;6.32;74.77;100818.84;124850;1099;102794;-75
2022/09/25 03:41:22;;;;;;;33.00;11.20;;;;;;;6.31;74.35;100823.17;124844;1099;102936;-75
2022/09/25 03:43:55;;;;;;;48.20;11.33;;;;;;;6.25;74.39;100828.91;124887;1099;104188;-75
2022/09/25 03:46:28;;;;;;;28.95;12.40;;;;;;;6.21;74.53;100826.92;124785;1098;104063;-75
2022/09/25 03:49:00;;;;;;;30.40;11.43;;;;;;;6.21;74.84;100832.14;124832;1099;104168;-75
2022/09/25 03:51:32;;;;;;;23.33;11.30;;;;;;;6.24;75.01;100821.01;124788;1099;102813;-75
2022/09/25 03:54:03;;;;;;;23.17;11.03;;;;;;;6.24;74.68;100821.01;124804;1099;104274;-75
2022/09/25 03:56:35;;;;;;;25.80;11.37;;;;;;;6.24;74.83;100823.61;124842;1099;104236;-75
2022/09/25 03:59:06;;;;;;;26.13;11.27;;;;;;;6.24;74.81;100821.89;124781;1099;102255;-75
2022/09/25 04:01:39;;;;;;;25.53;11.53;;;;;;;6.25;75.13;100828.03;124808;1099;101994;-75
2022/09/25 04:04:10;;;;;;;21.83;10.93;;;;;;;6.26;75.20;100822.91;124819;1099;102790;-75
2022/09/25 04:06:41;;;;;;;20.70;10.90;;;;;;;6.27;74.81;100818.58;124843;1099;101954;-75
2022/09/25 04:09:13;;;;;;;22.83;11.20;;;;;;;6.26;75.18;100825.51;124840;1099;102788;-75
2022/09/25 04:11:44;;;;;;;24.13;12.60;;;;;;;6.27;74.89;100826.39;124858;1099;104242;-76
2022/09/25 04:14:15;;;;;;;26.43;12.00;;;;;;;6.30;75.31;100829.19;125038;1099;104214;-75
2022/09/25 04:16:46;;;;;;;23.77;12.37;;;;;;;6.30;75.37;100824.86;124992;1099;104230;-76
2022/09/25 04:19:17;;;;;;;22.63;11.80;;;;;;;6.32;75.43;100824.95;124883;1099;104338;-75
2022/09/25 04:21:48;;;;;;;23.13;11.30;;;;;;;6.33;75.44;100821.55;124722;1099;104165;-75
2022/09/25 04:27:09;;;;;;;23.73;11.47;;;;;;;6.34;75.51;100822.43;124873;1099;104162;-76
2022/09/25 04:29:41;;;;;;;22.33;11.23;;;;;;;6.33;75.15;100824.15;124817;1099;104249;-75
2022/09/25 04:35:11;;;;;;;28.13;11.57;;;;;;;6.25;75.43;100822.81;124852;1099;104272;-75
2022/09/25 04:38:16;;;;;;;33.40;11.17;;;;;;;6.20;75.66;100824.23;124764;1099;102113;-75
2022/09/25 04:40:47;;;;;;;35.07;11.27;;;;;;;6.18;75.50;100825.86;124736;1098;104271;-75
2022/09/25 04:43:18;;;;;;;29.67;11.57;;;;;;;6.15;75.56;100828.28;124718;1099;104201;-75
2022/09/25 04:45:50;;;;;;;35.63;11.30;;;;;;;6.15;75.61;100823.08;124730;1099;104232;-75
2022/09/25 04:48:21;;;;;;;23.27;11.73;;;;;;;6.16;75.69;100823.16;124788;1099;104267;-76
2022/09/25 04:51:07;;;;;;;32.40;11.40;;;;;;;6.19;76.00;100818.13;124731;1099;104061;-75
2022/09/25 04:53:39;;;;;;;34.43;11.27;;;;;;;6.18;75.84;100825.86;124804;1099;104172;-76
2022/09/25 04:56:11;;;;;;;25.63;11.57;;;;;;;6.18;75.78;100833.67;124729;1099;104226;-75
2022/09/25 04:58:46;;;;;;;66.13;11.83;;;;;;;6.20;76.02;100825.16;124825;1098;103230;-76
2022/09/25 05:01:19;;;;;;;59.00;12.20;;;;;;;6.22;76.02;100830.45;124870;1099;102907;-76
2022/09/25 05:03:52;;;;;;;48.57;11.63;;;;;;;6.22;75.98;100830.45;124731;1099;102314;-76
2022/09/25 05:06:25;;;;;;;33.30;12.67;;;;;;;6.26;75.86;100835.02;124701;1099;104245;-75
2022/09/25 05:08:57;;;;;;;55.90;12.83;;;;;;;6.29;76.47;100836.11;124695;1099;104267;-75
2022/09/25 05:11:28;;;;;;;41.17;11.33;;;;;;;6.30;76.53;100834.39;124807;1099;104172;-75
2022/09/25 05:14:00;;;;;;;36.60;12.67;;;;;;;6.32;75.92;100824.95;124806;1099;104204;-75
2022/09/25 05:16:31;;;;;;;40.03;12.23;;;;;;;6.32;75.93;100824.95;124826;1099;102800;-75
2022/09/25 05:19:02;;;;;;;46.57;12.80;;;;;;;6.37;76.52;100820.00;124936;1099;104076;-76
2022/09/25 05:21:33;;;;;;;39.67;12.50;;;;;;;6.45;76.50;100819.64;124977;1099;102864;-75
2022/09/25 05:24:07;;;;;;;36.30;12.90;;;;;;;6.51;76.59;100824.29;124926;1099;104261;-75
2022/09/25 05:26:39;;;;;;;29.37;12.73;;;;;;;6.62;76.45;100820.61;124861;1099;104201;-76
2022/09/25 05:29:11;;;;;;;23.63;12.23;;;;;;;6.71;77.06;100822.81;124932;1099;104268;-75
2022/09/25 05:31:45;;;;;;;23.67;12.27;;;;;;;6.79;76.92;100823.25;124912;1099;104201;-76
2022/09/25 05:34:16;;;;;;;24.00;13.07;;;;;;;6.82;76.71;100824.34;124851;1099;104242;-75
2022/09/25 05:36:47;;;;;;;23.83;11.67;;;;;;;6.83;77.03;100826.11;124835;1099;102239;-76
2022/09/25 05:39:19;;;;;;;22.07;12.13;;;;;;;6.87;77.13;100828.89;124820;1099;101929;-76
2022/09/25 05:41:50;;;;;;;24.70;11.80;;;;;;;6.90;77.24;100832.56;124689;1099;104204;-75
2022/09/25 05:44:21;;;;;;;23.03;12.07;;;;;;;6.93;77.12;100832.73;124703;1099;104242;-75
2022/09/25 05:46:52;;;;;;;21.30;11.73;;;;;;;6.98;77.49;100827.77;124700;1099;102795;-75
2022/09/25 05:49:24;;;;;;;25.10;12.23;;;;;;;7.03;77.27;100823.73;124724;1099;102260;-75
2022/09/25 05:51:55;;;;;;;23.23;11.97;;;;;;;7.14;77.27;100826.93;124690;1099;104242;-75
2022/09/25 05:54:26;;;;;;;22.67;11.63;;;;;;;7.23;77.07;100824.82;124645;1099;104166;-76
2022/09/25 05:56:57;;;;;;;24.43;12.53;;;;;;;7.29;77.61;100827.77;124681;1098;104775;-75
2022/09/25 05:59:28;;;;;;;23.70;12.20;;;;;;;7.31;77.59;100825.23;124736;1098;104303;-75
2022/09/25 06:01:59;;;;;;;22.90;12.53;;;;;;;7.34;77.50;100826.29;124694;1099;104268;-76
2022/09/25 06:04:30;;;;;;;22.53;12.23;;;;;;;7.41;77.36;100826.62;124720;1099;104280;-75
2022/09/25 06:07:01;;;;;;;21.63;12.27;;;;;;;7.49;77.60;100830.53;124876;1098;104187;-77
2022/09/25 06:09:33;;;;;;;22.73;12.17;;;;;;;7.56;77.86;100832.66;124856;1099;104082;-76
2022/09/25 06:12:05;;;;;;;22.13;11.90;;;;;;;7.65;78.05;100817.48;124785;1099;104280;-75
2022/09/25 06:14:36;;;;;;;22.00;11.50;;;;;;;7.76;78.33;100824.96;124758;1099;102772;-75
2022/09/25 06:17:07;;;;;;;23.30;11.73;;;;;;;7.82;77.67;100820.97;124709;1099;102155;-76
2022/09/25 06:19:38;;;;;;;22.50;11.77;;;;;;;7.89;78.00;100827.41;124675;1099;104214;-76
2022/09/25 06:22:15;;;;;;;21.53;11.87;;;;;;;7.96;78.17;100824.27;124731;1099;104159;-75
2022/09/25 06:24:50;;;;;;;26.93;12.33;;;;;;;8.05;77.70;100819.52;124754;1099;104221;-75
2022/09/25 06:27:26;;;;;;;23.17;12.37;;;;;;;8.15;77.91;100823.52;124710;1099;102775;-76
2022/09/25 06:30:00;;;;;;;24.57;12.77;;;;;;;8.23;77.82;100816.95;124857;1099;104241;-76
2022/09/25 06:32:32;;;;;;;30.23;13.40;;;;;;;8.34;77.85;100817.48;124852;1099;102899;-76
2022/09/25 06:35:05;;;;;;;25.27;13.97;;;;;;;8.48;78.38;100820.81;124782;1099;104692;-76
2022/09/25 06:37:38;;;;;;;28.17;13.57;;;;;;;8.61;78.01;100812.73;124747;1099;104225;-76
2022/09/25 06:40:17;;;;;;;28.93;14.27;;;;;;;8.71;78.50;100810.55;124762;1099;102781;-75
2022/09/25 06:42:51;;;;;;;30.93;14.60;;;;;;;8.83;78.40;100808.53;124843;1099;104175;-75
2022/09/25 06:45:23;;;;;;;26.60;14.50;;;;;;;8.94;78.32;100807.34;124773;1099;104249;-76
2022/09/25 06:47:56;;;;;;;27.67;14.93;;;;;;;9.11;77.77;100812.45;124824;1099;104230;-76
2022/09/25 06:50:32;;;;;;;28.23;14.68;;;;;;;9.25;77.72;100813.09;124804;1099;104188;-76
2022/09/25 06:53:03;;;;;;;25.63;14.17;;;;;;;9.39;78.33;100816.34;124864;1099;101819;-76
2022/09/25 06:55:34;;;;;;;27.57;14.63;;;;;;;9.51;77.62;100817.79;124852;1099;104182;-76
2022/09/25 06:58:08;;;;;;;26.57;14.07;;;;;;;9.65;78.31;100815.78;124829;1099;104310;-76
2022/09/25 07:00:39;;;;;;;25.77;13.80;;;;;;;9.79;78.20;100820.76;124808;1099;102820;-76
2022/09/25 07:06:03;;;;;;;25.67;13.13;;;;;;;10.05;77.52;100811.38;124851;1099;104192;-76
2022/09/25 07:08:36;;;;;;;25.05;13.72;;;;;;;10.18;78.08;100802.32;124793;1099;102961;-76
2022/09/25 07:11:12;;;;;;;32.57;14.43;;;;;;;10.30;78.05;100802.84;124866;1099;104163;-76
2022/09/25 07:13:44;;;;;;;25.43;13.60;;;;;;;10.47;77.68;100810.52;124781;1096;104153;-76
2022/09/25 07:16:17;;;;;;;24.87;13.40;;;;;;;10.63;77.95;100815.58;124805;1096;104229;-77
2022/09/25 07:18:50;;;;;;;27.23;13.80;;;;;;;10.80;77.92;100811.00;124828;1099;104159;-76
2022/09/25 07:21:24;;;;;;;26.50;14.20;;;;;;;10.95;77.90;100805.44;124832;1098;102262;-76
2022/09/25 07:23:57;;;;;;;36.30;14.13;;;;;;;11.11;77.54;100802.59;124761;1098;101976;-76
2022/09/25 07:26:32;;;;;;;25.23;13.93;;;;;;;11.27;77.52;100795.30;124902;1099;103572;-76
2022/09/25 07:29:05;;;;;;;30.20;13.07;;;;;;;11.43;77.63;100794.13;124829;1099;104159;-76
2022/09/25 07:31:37;;;;;;;21.23;10.63;;;;;;;11.57;77.34;100786.74;124862;1099;102293;-76
2022/09/25 07:34:08;;;;;;;25.70;10.40;;;;;;;11.71;77.61;100780.23;124813;1099;104204;-76
2022/09/25 07:36:41;;;;;;;24.93;9.80;;;;;;;11.86;76.87;100778.16;124877;1099;102816;-76
2022/09/25 07:39:13;;;;;;;23.17;11.10;;;;;;;12.02;77.09;100776.09;124851;1098;102579;-77
2022/09/25 07:41:46;;;;;;;26.70;13.60;;;;;;;12.16;76.84;100785.33;124780;1097;102155;-77
2022/09/25 07:44:18;;;;;;;27.47;13.67;;;;;;;12.36;76.24;100782.48;124840;1098;104341;-76
2022/09/25 07:46:51;;;;;;;24.20;13.97;;;;;;;12.56;75.53;100789.28;124803;1099;101914;-76
2022/09/25 07:49:25;;;;;;;26.52;13.30;;;;;;;12.73;75.62;100784.56;124784;1099;104236;-76
2022/09/25 07:51:56;;;;;;;33.00;14.77;;;;;;;12.89;75.43;100785.04;124853;1099;104162;-77
2022/09/25 07:54:28;;;;;;;31.53;13.53;;;;;;;13.02;75.01;100786.30;124783;1099;103327;-77
2022/09/25 07:56:59;;;;;;;23.10;11.60;;;;;;;13.13;75.54;100783.16;124893;1099;104271;-76
2022/09/25 07:59:30;;;;;;;18.43;8.87;;;;;;;13.25;75.43;100789.63;124807;1099;102794;-76
2022/09/25 08:02:08;;;;;;;36.87;10.30;;;;;;;13.39;74.95;100782.16;124817;1099;104332;-77
2022/09/25 08:04:39;;;;;;;19.03;8.37;;;;;;;13.58;75.15;100783.56;124981;1099;102755;-77
2022/09/25 08:07:11;;;;;;;15.47;7.87;;;;;;;13.82;74.62;100784.23;124877;1099;104219;-76
2022/09/25 08:09:42;;;;;;;15.27;7.00;;;;;;;14.03;74.37;100780.38;124915;1099;102458;-77
2022/09/25 08:12:14;;;;;;;14.53;7.07;;;;;;;14.23;73.48;100774.70;124835;1098;102585;-76
2022/09/25 08:14:47;;;;;;;9.33;4.73;;;;;;;14.39;73.76;100772.48;124724;1099;102723;-77
2022/09/25 08:17:18;;;;;;;11.47;5.40;;;;;;;14.56;74.18;100769.37;124793;1099;104191;-76
2022/09/25 08:19:50;;;;;;;9.93;4.17;;;;;;;14.74;72.65;100767.19;124858;1099;104235;-76
2022/09/25 08:22:21;;;;;;;6.87;4.00;;;;;;;14.89;72.96;100779.84;124855;1099;104235;-77
2022/09/25 08:24:53;;;;;;;6.77;3.90;;;;;;;15.04;72.22;100784.59;124844;1099;104227;-76
2022/09/25 08:27:24;;;;;;;8.97;4.00;;;;;;;15.18;72.60;100768.14;124804;1099;104184;-77
2022/09/25 08:29:56;;;;;;;8.53;3.70;;;;;;;15.32;71.58;100776.33;124919;1099;104255;-76
2022/09/25 08:32:27;;;;;;;8.57;3.83;;;;;;;15.48;71.24;100772.27;124873;1099;102810;-77
2022/09/25 08:34:58;;;;;;;5.20;3.70;;;;;;;15.59;70.55;100763.67;124815;1099;102890;-77
2022/09/25 08:37:30;;;;;;;7.03;3.43;;;;;;;15.72;70.13;100764.82;124813;1099;104175;-77
2022/09/25 08:40:02;;;;;;;8.03;3.40;;;;;;;15.87;69.97;100764.23;124851;1099;102400;-77
2022/09/25 08:42:37;;;;;;;7.93;4.00;;;;;;;16.02;69.18;100762.71;124809;1099;104195;-76
2022/09/25 08:51:06;;;;;;;3.77;3.13;;;;;;;16.53;69.05;100751.20;124706;1099;102690;-76
2022/09/25 08:53:42;;;;;;;4.60;3.08;;;;;;;16.69;68.35;100754.98;124773;1099;101829;-77
2022/09/25 08:56:20;;;;;;;7.03;3.50;;;;;;;16.79;67.23;100743.63;124690;1099;104086;-77
2022/09/25 08:58:54;;;;;;;6.33;3.50;;;;;;;16.86;66.03;100750.84;124863;1098;104220;-77
2022/09/25 09:01:29;;;;;;;5.33;3.33;;;;;;;16.96;66.26;100735.08;124833;1099;104309;-77
2022/09/25 09:04:05;;;;;;;5.37;3.10;;;;;;;17.07;65.76;100728.14;124861;1099;104287;-76
2022/09/25 09:06:41;;;;;;;4.53;3.13;;;;;;;17.18;65.72;100728.28;124910;1099;104159;-77
2022/09/25 09:09:17;;;;;;;18.00;4.30;;;;;;;17.27;65.54;100716.91;124864;1098;104169;-77
2022/09/25 09:11:55;;;;;;;6.13;3.33;;;;;;;17.34;64.22;100716.08;124792;1099;104159;-77
2022/09/25 09:14:30;;;;;;;8.70;3.03;;;;;;;17.45;64.09;100717.08;124786;1099;102248;-76
2022/09/25 09:17:05;;;;;;;4.67;3.00;;;;;;;17.53;63.27;100723.39;124893;1099;104246;-76
2022/09/25 09:19:38;;;;;;;3.53;2.70;;;;;;;17.61;62.44;100711.08;124783;1099;104226;-76
2022/09/25 09:22:14;;;;;;;4.75;2.60;;;;;;;17.69;61.80;100699.66;124832;1099;104181;-76
2022/09/25 09:25:00;;;;;;;4.93;2.90;;;;;;;17.74;60.12;100700.59;124746;1099;104268;-76
2022/09/25 09:27:50;;;;;;;3.30;3.00;;;;;;;17.84;60.07;100691.84;124804;1099;104242;-76
2022/09/25 09:30:28;;;;;;;4.90;2.73;;;;;;;17.94;59.81;100692.84;124736;1099;104229;-76
2022/09/25 09:33:20;;;;;;;4.80;2.73;;;;;;;18.03;59.69;100694.66;124808;1099;108055;-77
2022/09/25 09:36:05;;;;;;;4.33;2.93;;;;;;;18.08;57.93;100685.88;124857;1099;104159;-76
2022/09/25 09:38:46;;;;;;;7.23;2.63;;;;;;;18.14;58.87;100677.95;124849;1099;104228;-76
2022/09/25 09:41:29;;;;;;;4.40;2.73;;;;;;;18.19;57.30;100677.98;124857;1099;104252;-76
2022/09/25 09:44:17;;;;;;;3.90;2.60;;;;;;;18.21;54.23;100678.88;124642;1099;102788;-75
2022/09/25 09:46:58;;;;;;;2.93;2.43;;;;;;;18.27;56.31;100672.73;124854;1099;104169;-76
2022/09/25 09:49:36;;;;;;;3.40;2.50;;;;;;;18.32;55.95;100663.93;124639;1099;104182;-76
2022/09/25 09:52:15;;;;;;;4.47;2.77;;;;;;;18.37;55.72;100665.70;124845;1099;104172;-76
2022/09/25 09:54:52;;;;;;;10.60;2.93;;;;;;;18.40;55.02;100665.72;124905;1099;104162;-76
2022/09/25 09:57:27;;;;;;;4.90;2.70;;;;;;;18.44;55.28;100656.91;124893;1099;102248;-77
2022/09/25 10:00:03;;;;;;;10.33;3.30;;;;;;;18.49;54.87;100655.16;124769;1096;104236;-77
2022/09/25 10:02:45;;;;;;;9.57;3.13;;;;;;;18.53;55.04;100653.39;124823;1099;102567;-76
2022/09/25 10:05:19;;;;;;;;;;;;;;;18.53;52.62;100658.70;124864;1099;102161;-76
2022/09/25 10:07:51;;;;;;;12.10;2.90;;;;;;;18.59;53.13;100651.68;124863;1099;102804;-77
2022/09/25 10:10:27;;;;;;;3.30;2.60;;;;;;;18.65;52.87;100651.71;124881;1099;104278;-77
2022/09/25 10:13:04;;;;;;;8.03;2.67;;;;;;;18.71;53.13;100634.88;124850;1099;102824;-76
2022/09/25 10:15:41;;;;;;;3.60;2.53;;;;;;;18.75;52.47;100630.49;124861;1099;104267;-77
2022/09/25 10:18:14;;;;;;;8.03;3.20;;;;;;;18.78;52.79;100635.82;124841;1099;104288;-77
2022/09/25 10:20:51;;;;;;;7.23;3.60;;;;;;;18.79;49.66;100633.17;124882;1099;104255;-76
2022/09/25 10:23:38;;;;;;;8.23;3.10;;;;;;;18.75;50.55;100625.17;124852;1098;104592;-77
2022/09/25 10:26:27;;;;;;;5.33;2.90;;;;;;;18.83;51.56;100620.77;124695;1099;104354;-77
2022/09/25 10:29:01;;;;;;;18.50;3.80;;;;;;;18.85;51.45;100608.39;124763;1098;102883;-77
2022/09/25 10:31:36;;;;;;;4.42;2.70;;;;;;;18.89;50.20;100614.63;124713;1099;104328;-75
2022/09/25 10:34:18;;;;;;;3.93;2.67;;;;;;;18.89;49.43;100623.48;124690;1099;104315;-76
2022/09/25 10:36:53;;;;;;;15.00;3.17;;;;;;;18.98;50.03;100615.54;124802;1099;104318;-77
2022/09/25 10:39:32;;;;;;;5.33;2.87;;;;;;;19.03;50.03;100613.77;124771;1099;104235;-77
2022/09/25 10:42:25;;;;;;;4.93;2.37;;;;;;;19.09;49.66;100609.34;124758;1099;105262;-76
2022/09/25 10:44:57;;;;;;;3.73;2.80;;;;;;;19.17;49.22;100596.97;124781;1099;111831;-76
2022/09/25 10:50:22;;;;;;;3.57;2.80;;;;;;;19.30;49.51;100606.73;124853;1099;104233;-77
2022/09/25 10:52:57;;;;;;;2.77;2.50;;;;;;;19.31;48.63;100605.86;124821;1099;104228;-77
2022/09/25 10:55:33;;;;;;;5.00;2.80;;;;;;;19.37;48.73;100597.88;124856;1099;104322;-76
2022/09/25 10:58:13;;;;;;;4.07;2.40;;;;;;;19.40;47.53;100600.55;124781;1099;102758;-76
2022/09/25 11:00:56;;;;;;;3.17;2.50;;;;;;;19.43;47.63;100598.77;124868;1099;104179;-76
2022/09/25 11:03:33;;;;;;;4.20;2.60;;;;;;;19.44;47.62;100598.77;124837;1099;104160;-77
2022/09/25 11:06:08;;;;;;;4.83;2.77;;;;;;;19.45;47.44;100603.22;124883;1099;104191;-76
2022/09/25 11:08:43;;;;;;;4.00;2.80;;;;;;;19.46;47.76;100597.02;124920;1099;104208;-76
2022/09/25 11:11:20;;;;;;;4.97;2.67;;;;;;;19.51;47.11;100591.66;124888;1099;102762;-77
2022/09/25 11:13:54;;;;;;;4.53;2.37;;;;;;;19.52;47.75;100580.14;124796;1099;101860;-76
2022/09/25 11:16:45;;;;;;;3.20;2.90;;;;;;;19.54;46.80;100583.69;124857;1099;102803;-77
2022/09/25 11:19:19;;;;;;;12.33;3.27;;;;;;;19.63;46.28;100574.82;124890;1099;104191;-77
2022/09/25 11:21:58;;;;;;;3.60;2.70;;;;;;;19.70;46.62;100563.30;124876;1098;104195;-77
2022/09/25 11:24:53;;;;;;;4.37;2.80;;;;;;;19.74;45.60;100562.38;125389;1099;104167;-77
2022/09/25 11:27:30;;;;;;;3.70;2.63;;;;;;;19.70;45.35;100573.95;124901;1099;104169;-77
2022/09/25 11:30:06;;;;;;;5.10;2.60;;;;;;;19.70;45.69;100561.51;124949;1099;102352;-76
2022/09/25 11:32:44;;;;;;;2.97;2.67;;;;;;;19.71;45.92;100554.41;124788;1099;104176;-77
2022/09/25 11:35:41;;;;;;;4.53;2.63;;;;;;;19.70;45.87;100553.52;124441;1099;104351;-78
2022/09/25 11:41:10;;;;;;;4.67;2.77;;;;;;;19.77;45.33;100556.22;124782;1099;104211;-77
2022/09/25 11:41:21;;;;;;;3.77;2.60;;;;;;;19.80;45.60;100554.42;124873;1099;102765;-77
2022/09/25 11:44:02;;;;;;;3.77;2.80;;;;;;;19.81;45.16;100558.00;124809;1099;104233;-76
2022/09/25 11:46:40;;;;;;;3.03;2.70;;;;;;;19.76;44.73;100560.62;124808;1099;104204;-76
2022/09/25 11:49:23;;;;;;;4.27;2.80;;;;;;;19.75;44.85;100569.50;124876;1099;104259;-76
2022/09/25 11:52:31;;;;;;;4.37;2.53;;;;;;;19.77;44.56;100564.20;124818;1099;104224;-75
2022/09/25 11:55:20;;;;;;;3.15;2.45;;;;;;;19.75;44.05;100565.05;124828;1099;104169;-74
2022/09/25 11:58:00;;;;;;;5.70;2.90;;;;;;;19.71;44.42;100555.31;124883;1098;104230;-75
2022/09/25 12:00:39;;;;;;;3.13;2.63;;;;;;;19.71;43.09;100551.73;124768;1098;104172;-74
2022/09/25 12:03:28;;;;;;;3.50;2.50;;;;;;;19.71;44.62;100539.34;124829;1099;102029;-75
2022/09/25 12:06:25;;;;;;;3.23;2.73;;;;;;;19.72;44.80;100537.55;124885;1099;104372;-74